Time;durP1;ratioP1;P1;durP2;ratioP2;P2;SDS_P1;SDS_P2;PMS_P1;PMS_P2;Temp;Humidity;BMP_temperature;BMP_pressure;BME280_temperature;BME280_humidity;BME280_pressure;Samples;Min_cycle;Max_cycle;Signal;HPM_P1;HPM_P2
2024/03/02 00:00:53;;;;;;;14.07;8.63;;;;;;;7.75;81.62;97756.97;5175195;27;41858;-82
2024/03/02 00:03:21;;;;;;;12.87;9.17;;;;;;;7.71;81.82;97748.41;5174700;27;43509;-83
2024/03/02 00:05:52;;;;;;;13.33;8.90;;;;;;;7.75;82.02;97742.00;5176062;27;43200;-81
2024/03/02 00:08:25;;;;;;;12.63;8.87;;;;;;;7.80;81.97;97753.03;5157847;27;41532;-83
2024/03/02 00:10:52;;;;;;;14.63;8.97;;;;;;;7.81;82.03;97746.81;5174466;27;41781;-80
2024/03/02 00:13:24;;;;;;;12.43;9.33;;;;;;;7.82;83.09;97742.41;5174472;27;41552;-81
2024/03/02 00:15:55;;;;;;;15.43;10.07;;;;;;;7.82;82.68;97747.69;5171109;27;43000;-80
2024/03/02 00:18:31;;;;;;;13.57;9.20;;;;;;;7.76;83.05;97740.22;5174245;27;39575;-84
2024/03/02 00:20:59;;;;;;;13.70;9.63;;;;;;;7.80;83.23;97744.28;5157508;27;40550;-82
2024/03/02 00:23:30;;;;;;;14.70;9.30;;;;;;;7.61;83.12;97707.00;5175406;27;42958;-84
2024/03/02 00:25:59;;;;;;;12.20;9.17;;;;;;;7.78;83.03;97736.53;5157342;27;41031;-82
2024/03/02 00:28:30;;;;;;;15.63;10.17;;;;;;;7.74;83.92;97735.03;5157195;27;40436;-81
2024/03/02 00:31:02;;;;;;;16.10;10.40;;;;;;;7.47;84.30;97700.03;5176000;27;41630;-79
2024/03/02 00:33:33;;;;;;;15.90;11.30;;;;;;;7.77;84.33;97744.53;5173420;27;42712;-85
2024/03/02 00:36:01;;;;;;;14.17;9.00;;;;;;;7.69;84.28;97731.03;5156625;27;41691;-83
2024/03/02 00:38:30;;;;;;;13.40;9.30;;;;;;;7.78;84.04;97754.13;5156869;27;40233;-81
2024/03/02 00:40:59;;;;;;;15.40;9.80;;;;;;;7.78;83.86;97756.75;5175238;27;41640;-81
2024/03/02 00:43:44;;;;;;;14.47;9.80;;;;;;;7.77;84.06;97755.91;5174091;27;43866;-81
2024/03/02 00:46:14;;;;;;;11.50;7.87;;;;;;;7.79;83.35;97764.53;5171213;27;43197;-80
2024/03/02 00:48:54;;;;;;;14.03;8.80;;;;;;;7.80;83.75;97771.50;5175021;27;40909;-85
2024/03/02 00:51:22;;;;;;;13.33;8.87;;;;;;;7.80;83.09;97765.38;5172060;27;42428;-84
2024/03/02 00:53:50;;;;;;;13.67;8.53;;;;;;;7.77;83.47;97765.63;5173994;27;42381;-81
2024/03/02 00:56:18;;;;;;;16.80;10.90;;;;;;;7.73;83.44;97772.03;5156753;27;41288;-77
2024/03/02 00:58:46;;;;;;;16.77;10.27;;;;;;;7.70;84.26;97769.59;5155805;27;39018;-84
2024/03/02 01:01:16;;;;;;;17.83;11.37;;;;;;;7.65;84.36;97761.19;5175135;27;41646;-79
2024/03/02 01:03:43;;;;;;;17.37;11.40;;;;;;;7.61;84.44;97767.59;5173657;27;43798;-84
2024/03/02 01:06:11;;;;;;;18.93;11.90;;;;;;;7.52;84.97;97762.00;5156907;27;42003;-84
2024/03/02 01:08:39;;;;;;;16.47;11.27;;;;;;;7.57;85.30;97774.84;5173556;27;41001;-80
2024/03/02 01:11:06;;;;;;;16.77;10.63;;;;;;;7.55;85.42;97767.06;5173839;27;41902;-79
2024/03/02 01:13:34;;;;;;;15.03;10.07;;;;;;;7.55;85.54;97763.56;5156128;27;41672;-83
2024/03/02 01:16:04;;;;;;;17.43;11.00;;;;;;;7.56;85.42;97774.00;5173846;27;42255;-84
2024/03/02 01:18:33;;;;;;;14.77;9.47;;;;;;;7.55;85.24;97774.97;5156581;27;38404;-85
2024/03/02 01:21:01;;;;;;;14.43;9.67;;;;;;;7.46;84.63;97761.56;5173713;27;42298;-81
2024/03/02 01:23:29;;;;;;;12.73;8.17;;;;;;;7.50;84.40;97761.28;5173785;27;41939;-80
2024/03/02 01:25:56;;;;;;;14.73;10.20;;;;;;;7.48;85.52;97747.34;5156170;27;40860;-80
2024/03/02 01:28:23;;;;;;;16.23;11.10;;;;;;;7.51;85.65;97765.59;5155903;27;39616;-80
2024/03/02 01:30:51;;;;;;;14.20;9.93;;;;;;;7.51;85.29;97768.22;5156225;27;42519;-80
2024/03/02 01:33:20;;;;;;;15.27;9.33;;;;;;;7.51;84.86;97775.28;5173592;27;42693;-79
2024/03/02 01:35:49;;;;;;;15.77;9.43;;;;;;;7.51;84.63;97776.13;5156241;27;41208;-82
2024/03/02 01:38:16;;;;;;;13.47;9.57;;;;;;;7.49;84.88;97772.75;5155524;27;39891;-83
2024/03/02 01:40:45;;;;;;;14.47;9.43;;;;;;;7.49;84.69;97783.28;5156192;27;41762;-81
2024/03/02 01:43:13;;;;;;;21.53;11.63;;;;;;;7.38;84.19;97753.34;5155799;27;43504;-81
2024/03/02 01:45:40;;;;;;;12.77;9.00;;;;;;;7.47;84.46;97772.00;5173342;27;42214;-83
2024/03/02 01:48:08;;;;;;;16.67;9.97;;;;;;;7.46;85.15;97775.59;5155961;27;38859;-82
2024/03/02 01:50:36;;;;;;;14.43;9.17;;;;;;;7.45;85.04;97766.00;5173044;27;41494;-83
2024/03/02 01:53:05;;;;;;;16.30;10.27;;;;;;;7.47;85.44;97772.00;5155368;27;42962;-85
2024/03/02 01:55:34;;;;;;;14.57;10.17;;;;;;;7.48;85.44;97763.16;5158198;27;42414;-84
2024/03/02 01:58:02;;;;;;;13.77;9.70;;;;;;;7.51;85.63;97770.00;5175730;27;40332;-80
2024/03/02 02:00:30;;;;;;;15.90;10.37;;;;;;;7.46;85.34;97751.88;5175281;27;39961;-83
2024/03/02 02:02:57;;;;;;;16.33;10.93;;;;;;;7.55;85.72;97767.06;5175303;27;43910;-77
2024/03/02 02:05:25;;;;;;;14.03;9.93;;;;;;;7.57;85.47;97759.91;5175950;27;42620;-82
2024/03/02 02:07:52;;;;;;;13.37;8.73;;;;;;;7.62;85.27;97766.66;5157116;27;40546;-79
2024/03/02 02:10:21;;;;;;;13.37;9.33;;;;;;;7.64;85.23;97756.84;5175561;27;41550;-84
2024/03/02 02:12:49;;;;;;;12.80;8.30;;;;;;;7.64;85.26;97751.59;5177347;27;43749;-81
2024/03/02 02:15:23;;;;;;;13.83;8.90;;;;;;;7.64;85.41;97748.94;5158772;27;42205;-79
2024/03/02 02:17:51;;;;;;;14.40;10.33;;;;;;;7.64;86.03;97741.06;5159270;27;40351;-80
2024/03/02 02:20:19;;;;;;;12.87;8.50;;;;;;;7.54;85.88;97728.47;5159029;27;40657;-82
2024/03/02 02:23:01;;;;;;;12.87;8.60;;;;;;;7.64;86.01;97735.78;5159469;27;42290;-80
2024/03/02 02:25:29;;;;;;;11.23;8.03;;;;;;;7.63;85.47;97739.38;5176560;27;42121;-82
2024/03/02 02:27:57;;;;;;;13.70;8.57;;;;;;;7.63;85.74;97742.84;5158804;27;39070;-85
2024/03/02 02:30:25;;;;;;;10.70;7.73;;;;;;;7.64;85.12;97733.16;5158520;27;40956;-81
2024/03/02 02:32:53;;;;;;;10.97;7.40;;;;;;;7.64;85.00;97738.41;5176728;27;43786;-82
2024/03/02 02:35:21;;;;;;;14.00;9.03;;;;;;;7.62;85.32;97740.31;5176637;27;43023;-79
2024/03/02 02:37:50;;;;;;;11.20;7.93;;;;;;;7.59;85.24;97741.34;5175924;27;39106;-82
2024/03/02 02:40:19;;;;;;;12.77;8.43;;;;;;;7.55;84.89;97740.72;5158175;27;42981;-81
2024/03/02 02:42:47;;;;;;;14.80;8.90;;;;;;;7.52;85.00;97738.31;5158402;27;41399;-80
2024/03/02 02:45:15;;;;;;;12.70;8.03;;;;;;;7.49;84.78;97741.13;5177290;27;42139;-81
2024/03/02 02:47:42;;;;;;;9.83;8.07;;;;;;;7.47;85.27;97735.13;5158331;27;40458;-84
2024/03/02 02:50:11;;;;;;;12.23;8.67;;;;;;;7.37;85.25;97728.81;5158578;27;40748;-80
2024/03/02 02:52:40;;;;;;;11.50;8.17;;;;;;;7.41;85.43;97732.94;5158111;27;42101;-82
2024/03/02 02:55:10;;;;;;;10.93;7.27;;;;;;;7.34;85.61;97730.78;5158711;27;42072;-79
2024/03/02 02:57:41;;;;;;;10.83;7.83;;;;;;;7.37;85.91;97738.50;5158171;27;39578;-82
2024/03/02 03:00:14;;;;;;;14.07;8.90;;;;;;;7.22;85.60;97721.94;5158271;27;42523;-84
2024/03/02 03:02:42;;;;;;;13.30;9.30;;;;;;;7.30;85.97;97740.69;5172860;27;43356;-81
2024/03/02 03:05:11;;;;;;;12.50;8.07;;;;;;;7.18;86.31;97720.44;5175405;27;42591;-81
2024/03/02 03:07:40;;;;;;;14.97;9.57;;;;;;;7.26;86.92;97728.69;5158197;27;40038;-80
2024/03/02 03:10:08;;;;;;;11.53;8.60;;;;;;;7.11;87.76;97711.28;5158175;27;42083;-80
2024/03/02 03:12:36;;;;;;;14.83;9.33;;;;;;;7.22;87.54;97729.81;5176576;27;43488;-82
2024/03/02 03:15:08;;;;;;;11.63;8.20;;;;;;;7.21;87.24;97730.78;5175220;27;42090;-82
2024/03/02 03:17:36;;;;;;;12.67;8.30;;;;;;;7.18;87.65;97731.81;5157997;27;40262;-79
2024/03/02 03:20:09;;;;;;;11.10;8.03;;;;;;;7.09;87.28;97715.78;5175354;27;40738;-81
2024/03/02 03:22:36;;;;;;;11.70;8.13;;;;;;;7.04;87.43;97712.63;5173202;27;43726;-80
2024/03/02 03:25:05;;;;;;;12.40;8.03;;;;;;;7.11;87.35;97735.81;5158154;27;42313;-83
2024/03/02 03:27:32;;;;;;;13.17;9.07;;;;;;;7.09;87.10;97731.59;5175364;27;40194;-80
2024/03/02 03:30:00;;;;;;;12.30;8.10;;;;;;;7.06;87.05;97732.63;5175143;27;41511;-80
2024/03/02 03:32:29;;;;;;;10.43;7.33;;;;;;;7.02;87.06;97735.59;5174386;27;45107;-83
2024/03/02 03:34:56;;;;;;;13.97;10.13;;;;;;;6.98;86.82;97739.34;5157685;27;41514;-83
2024/03/02 03:37:25;;;;;;;11.83;8.43;;;;;;;6.94;87.14;97745.75;5175119;27;38996;-83
2024/03/02 03:39:53;;;;;;;11.63;8.03;;;;;;;6.90;87.23;97741.66;5175123;27;41410;-85
2024/03/02 03:42:20;;;;;;;12.03;8.33;;;;;;;6.87;87.19;97736.59;5176280;27;42688;-81
2024/03/02 03:44:48;;;;;;;12.27;8.33;;;;;;;6.82;87.16;97737.72;5157681;27;42300;-83
2024/03/02 03:47:15;;;;;;;10.07;7.47;;;;;;;6.79;87.93;97730.03;5175399;27;39332;-83
2024/03/02 03:49:44;;;;;;;13.37;9.03;;;;;;;6.64;87.90;97710.00;5175874;27;41725;-82
2024/03/02 03:52:12;;;;;;;13.30;9.13;;;;;;;6.74;88.06;97726.00;5174823;27;43258;-83
2024/03/02 03:54:39;;;;;;;13.23;9.10;;;;;;;6.71;88.48;97727.06;5174496;27;42169;-82
2024/03/02 03:57:06;;;;;;;11.77;8.67;;;;;;;6.68;88.06;97726.41;5157414;27;40467;-80
2024/03/02 03:59:34;;;;;;;13.57;9.30;;;;;;;6.67;88.17;97735.25;5156925;27;40648;-83
2024/03/02 04:02:02;;;;;;;14.10;9.73;;;;;;;6.63;88.12;97733.75;5157502;27;43092;-80
2024/03/02 04:04:29;;;;;;;11.63;8.30;;;;;;;6.53;88.17;97723.00;5174501;27;42244;-81
2024/03/02 04:06:58;;;;;;;11.20;7.80;;;;;;;6.55;88.42;97739.53;5157685;27;39238;-80
2024/03/02 04:09:27;;;;;;;12.13;8.60;;;;;;;6.51;88.26;97747.69;5174495;27;41783;-83
2024/03/02 04:11:54;;;;;;;13.33;9.10;;;;;;;6.46;88.44;97740.94;5174608;27;42754;-77
2024/03/02 04:14:22;;;;;;;12.77;8.90;;;;;;;6.40;88.33;97738.72;5174408;27;43479;-85
2024/03/02 04:16:49;;;;;;;13.60;8.97;;;;;;;6.34;88.30;97732.97;5157122;27;42237;-80
2024/03/02 04:19:17;;;;;;;11.90;8.17;;;;;;;6.09;88.70;97708.25;5174330;27;40512;-83
2024/03/02 04:21:44;;;;;;;11.07;7.77;;;;;;;6.29;88.55;97745.59;5175973;27;42518;-82
2024/03/02 04:24:13;;;;;;;13.73;8.87;;;;;;;6.24;88.31;97747.66;5174053;27;42629;-78
2024/03/02 07:48:08;;;;;;;18.00;11.63;;;;;;;7.08;100.00;97819.41;5109299;28;20582;-79
2024/03/02 07:50:37;;;;;;;17.30;11.00;;;;;;;7.67;100.00;97804.06;5107542;28;40382;-79
2024/03/02 07:53:05;;;;;;;13.47;9.80;;;;;;;8.51;100.00;97830.78;5091056;28;41815;-80
2024/03/02 07:55:32;;;;;;;15.57;10.17;;;;;;;9.09;100.00;97829.25;5090890;28;41835;-78
2024/03/02 07:58:01;;;;;;;16.13;11.43;;;;;;;9.46;100.00;97815.00;5109357;28;43093;-80
2024/03/02 08:00:28;;;;;;;15.50;10.67;;;;;;;9.95;98.95;97846.53;5108307;28;40050;-81
2024/03/02 08:02:57;;;;;;;12.93;9.50;;;;;;;10.35;96.64;97849.63;5108361;28;41926;-80
2024/03/02 08:05:27;;;;;;;12.70;9.70;;;;;;;10.81;94.14;97848.66;5107970;28;42964;-84
2024/03/02 08:07:54;;;;;;;13.90;9.90;;;;;;;11.11;89.71;97832.13;5090915;28;41708;-86
2024/03/02 08:10:22;;;;;;;13.80;10.10;;;;;;;11.62;88.09;97840.25;5090989;28;39086;-77
2024/03/02 08:12:49;;;;;;;12.37;9.87;;;;;;;12.01;86.56;97840.56;5107789;28;41635;-82
2024/03/02 08:15:17;;;;;;;15.07;9.70;;;;;;;12.39;83.54;97851.41;5109076;28;43773;-81
2024/03/02 08:17:48;;;;;;;13.37;9.93;;;;;;;12.68;81.08;97851.56;5124807;27;41547;-83
2024/03/02 08:20:16;;;;;;;15.27;10.60;;;;;;;13.04;79.58;97849.31;5139157;27;39932;-81
2024/03/02 08:22:47;;;;;;;12.00;9.07;;;;;;;13.46;78.39;97858.81;5108441;28;41745;-78
2024/03/02 08:25:15;;;;;;;12.67;9.53;;;;;;;13.86;74.22;97871.97;5105179;28;42638;-83
2024/03/02 08:27:43;;;;;;;11.87;8.73;;;;;;;14.22;72.23;97874.88;5089730;28;41095;-80
2024/03/02 08:30:12;;;;;;;11.20;9.00;;;;;;;14.38;69.94;97873.31;5090345;28;40365;-83
2024/03/02 08:32:40;;;;;;;10.93;8.80;;;;;;;14.56;69.34;97873.47;5107342;28;40715;-79
2024/03/02 08:35:08;;;;;;;11.10;9.10;;;;;;;14.67;67.30;97878.63;5141783;27;43535;-84
2024/03/02 08:37:35;;;;;;;13.00;9.97;;;;;;;14.68;66.85;97879.47;5108519;28;42648;-81
2024/03/02 08:40:07;;;;;;;10.67;8.77;;;;;;;14.67;65.22;97881.28;5090327;28;38938;-82
2024/03/02 08:42:34;;;;;;;10.33;8.57;;;;;;;14.69;64.15;97892.63;5107748;28;42046;-85
2024/03/02 08:45:02;;;;;;;10.00;7.90;;;;;;;14.81;65.56;97881.78;5107503;28;41867;-83
2024/03/02 08:47:29;;;;;;;10.47;8.50;;;;;;;14.94;64.03;97884.97;5106515;28;43423;-81
2024/03/02 08:49:57;;;;;;;11.27;8.67;;;;;;;14.74;63.63;97834.41;5090516;28;39628;-85
2024/03/02 08:52:24;;;;;;;10.60;8.43;;;;;;;15.04;62.32;97859.09;5108181;28;42709;-82
2024/03/02 08:54:52;;;;;;;9.73;8.07;;;;;;;15.28;61.75;97874.56;5107594;28;42094;-81
2024/03/02 08:57:21;;;;;;;11.30;8.97;;;;;;;15.61;61.95;97879.28;5105791;28;42162;-83
2024/03/02 08:59:48;;;;;;;11.87;8.37;;;;;;;15.99;60.14;97883.47;5093376;28;39761;-78
2024/03/02 09:02:16;;;;;;;10.63;8.67;;;;;;;16.36;57.93;97895.81;5076353;28;41287;-81
2024/03/02 09:04:44;;;;;;;11.37;9.23;;;;;;;16.55;57.09;97884.94;5094222;28;43724;-83
2024/03/02 09:07:11;;;;;;;9.67;8.57;;;;;;;16.88;57.11;97896.69;5092952;28;41179;-86
2024/03/02 09:09:39;;;;;;;9.93;8.13;;;;;;;17.06;55.31;97904.66;5127264;27;39850;-83
2024/03/02 09:12:07;;;;;;;10.40;8.23;;;;;;;17.33;54.82;97904.41;5092789;28;41725;-83
2024/03/02 09:14:37;;;;;;;9.43;7.73;;;;;;;17.69;53.98;97913.09;5126694;27;43021;-82
2024/03/02 09:17:05;;;;;;;9.90;8.20;;;;;;;18.18;52.35;97919.38;5093738;28;44288;-83
2024/03/02 09:19:32;;;;;;;8.73;7.70;;;;;;;18.41;51.66;97913.38;5127070;27;40347;-78
2024/03/02 09:22:02;;;;;;;10.27;7.63;;;;;;;18.68;51.52;97931.78;5091312;28;41626;-82
2024/03/02 09:24:30;;;;;;;9.13;7.97;;;;;;;18.69;50.98;97933.47;5074839;28;44525;-82
2024/03/02 09:26:57;;;;;;;9.10;7.80;;;;;;;18.71;49.42;97936.81;5091995;28;43412;-84
2024/03/02 09:29:25;;;;;;;9.53;7.60;;;;;;;18.69;49.78;97933.47;5109635;28;39946;-79
2024/03/02 09:31:54;;;;;;;10.07;8.00;;;;;;;18.54;49.39;97935.16;5092496;28;41991;-79
2024/03/02 09:34:22;;;;;;;10.27;8.30;;;;;;;18.31;49.56;97935.78;5092582;28;41584;-81
2024/03/02 09:36:51;;;;;;;10.03;8.27;;;;;;;18.18;50.72;97929.25;5092100;28;42383;-82
2024/03/02 09:39:19;;;;;;;10.17;7.97;;;;;;;18.06;50.55;97920.69;5092360;28;39784;-79
2024/03/02 09:41:46;;;;;;;9.03;7.03;;;;;;;17.93;50.05;97931.03;5071200;28;41842;-79
2024/03/02 09:44:14;;;;;;;8.23;7.00;;;;;;;17.90;50.44;97926.88;5092286;28;42665;-83
2024/03/02 09:46:43;;;;;;;8.63;7.30;;;;;;;17.89;50.06;97919.00;5073779;28;41627;-84
2024/03/02 09:49:13;;;;;;;8.50;7.40;;;;;;;17.95;50.46;97910.28;5075533;28;38756;-82
2024/03/02 09:51:41;;;;;;;9.47;8.07;;;;;;;18.01;50.06;97917.69;5074599;28;40739;-78
2024/03/02 09:54:09;;;;;;;9.37;8.10;;;;;;;17.98;49.71;97917.16;5092197;28;43342;-80
2024/03/02 09:56:36;;;;;;;9.80;8.27;;;;;;;17.95;50.46;97919.16;5074517;28;41032;-82
2024/03/02 09:59:04;;;;;;;9.53;8.13;;;;;;;18.04;49.80;97924.56;5074978;28;38965;-82
2024/03/02 10:01:32;;;;;;;9.17;8.17;;;;;;;18.19;50.28;97917.53;5074367;28;41204;-85
2024/03/02 10:04:00;;;;;;;11.63;8.07;;;;;;;18.46;49.75;97927.09;5093549;28;43392;-79
2024/03/02 10:06:29;;;;;;;9.63;7.80;;;;;;;18.93;48.73;97924.53;5075092;28;41185;-81
2024/03/02 10:08:58;;;;;;;9.73;7.43;;;;;;;19.45;47.66;97924.88;5108437;28;39991;-81
2024/03/02 10:11:30;;;;;;;8.67;7.77;;;;;;;20.37;46.13;97937.50;5090372;28;41724;-82
2024/03/02 10:14:09;;;;;;;9.53;8.03;;;;;;;21.68;44.35;97929.75;5091476;28;42787;-79
2024/03/02 10:16:37;;;;;;;8.20;7.40;;;;;;;23.42;42.19;97954.44;5078905;28;41057;-83
2024/03/02 10:19:18;;;;;;;7.73;6.93;;;;;;;25.27;39.46;97977.41;5080007;28;40204;-84
2024/03/02 10:21:49;;;;;;;8.30;7.38;;;;;;;26.47;35.77;97986.81;5094735;28;41393;-83
2024/03/02 10:24:16;;;;;;;7.32;6.47;;;;;;;28.60;32.81;97991.63;5096766;28;41717;-81
2024/03/02 10:26:44;;;;;;;6.28;5.68;;;;;;;30.81;30.51;97978.88;5096094;28;42806;-82
2024/03/02 10:29:12;;;;;;;7.28;6.47;;;;;;;32.68;27.60;97994.41;5074306;28;38844;-86
2024/03/02 10:31:40;;;;;;;6.68;6.10;;;;;;;33.11;26.65;97996.22;5073671;28;42236;-83
2024/03/02 10:34:08;;;;;;;5.97;5.40;;;;;;;33.38;26.37;97985.19;5091155;28;41829;-82
2024/03/02 10:36:36;;;;;;;6.43;5.85;;;;;;;33.27;25.11;97999.94;5090432;28;42587;-86
2024/03/02 10:39:06;;;;;;;6.75;6.15;;;;;;;32.64;25.92;97984.25;5092745;28;40741;-85
2024/03/02 10:41:35;;;;;;;6.93;5.78;;;;;;;32.32;26.00;97984.97;5090175;28;40965;-84
2024/03/02 10:44:03;;;;;;;6.38;5.85;;;;;;;32.00;25.76;97978.53;5091386;28;43445;-87
2024/03/02 10:46:32;;;;;;;6.95;6.35;;;;;;;31.68;27.07;97968.25;5091311;28;42216;-84
2024/03/02 10:49:00;;;;;;;6.38;5.75;;;;;;;31.72;26.43;97961.19;5092371;28;41261;-88
2024/03/02 10:51:31;;;;;;;6.57;6.03;;;;;;;31.69;26.43;97972.66;5090566;28;41089;-86
2024/03/02 10:54:00;;;;;;;6.35;5.75;;;;;;;31.02;26.36;97977.31;5089263;28;42771;-85
2024/03/02 10:56:31;;;;;;;6.55;5.95;;;;;;;30.27;26.66;97959.28;5090216;28;42399;-79
2024/03/02 10:59:04;;;;;;;6.25;5.70;;;;;;;30.32;27.12;97950.34;5089377;28;40530;-81
2024/03/02 11:01:33;;;;;;;7.00;6.30;;;;;;;29.99;27.27;97929.22;5073373;28;40522;-82
2024/03/02 11:04:03;;;;;;;5.72;5.18;;;;;;;29.91;27.97;97943.22;5073953;28;43546;-87
2024/03/02 11:06:34;;;;;;;6.55;5.95;;;;;;;29.41;27.62;97949.25;5093140;28;40860;-84
2024/03/02 11:09:08;;;;;;;6.30;5.80;;;;;;;28.97;28.26;97936.16;5073817;28;41347;-83
2024/03/02 11:11:42;;;;;;;6.40;5.80;;;;;;;28.56;28.56;97940.56;5089988;28;43099;-85
2024/03/02 11:14:17;;;;;;;7.00;6.40;;;;;;;28.22;28.32;97942.09;5090577;28;43532;-85
2024/03/02 11:16:45;;;;;;;5.97;5.37;;;;;;;27.64;29.14;97934.44;5089729;28;42443;-87
2024/03/02 11:19:14;;;;;;;6.27;5.67;;;;;;;28.19;29.83;97918.03;5073785;28;39015;-82
2024/03/02 11:21:42;;;;;;;5.45;4.95;;;;;;;29.27;28.65;97926.81;5089318;28;42805;-85
2024/03/02 11:24:36;;;;;;;6.55;5.82;;;;;;;29.93;27.40;97925.50;5090439;28;42272;-82
2024/03/02 11:27:07;;;;;;;5.28;4.78;;;;;;;30.99;27.07;97929.41;5073677;28;41100;-78
2024/03/02 11:29:44;;;;;;;4.95;4.55;;;;;;;32.53;25.18;97927.63;5088728;28;40012;-88
2024/03/02 11:32:17;;;;;;;4.78;4.38;;;;;;;33.39;24.19;97933.88;5091693;28;42154;-86
2024/03/02 11:34:47;;;;;;;5.20;4.80;;;;;;;34.41;23.64;97936.00;5088767;28;42716;-82
2024/03/02 11:37:16;;;;;;;5.13;4.55;;;;;;;35.52;22.22;97948.19;5089915;28;43037;-80
2024/03/02 11:39:45;;;;;;;4.88;4.47;;;;;;;35.87;21.53;97934.31;5091380;28;40118;-83
2024/03/02 11:42:16;;;;;;;4.43;4.03;;;;;;;35.51;21.30;97941.00;5092940;28;41950;-81
2024/03/02 11:44:45;;;;;;;5.10;4.70;;;;;;;34.51;22.50;97933.28;5091894;28;44080;-81
2024/03/02 11:47:18;;;;;;;5.00;4.60;;;;;;;33.35;23.82;97914.38;5091172;28;40981;-88
2024/03/02 11:49:47;;;;;;;4.93;4.45;;;;;;;32.99;23.91;97894.06;5090265;28;39960;-80
2024/03/02 11:52:17;;;;;;;4.15;3.75;;;;;;;34.49;23.37;97910.75;5094634;28;42678;-80
2024/03/02 11:54:48;;;;;;;3.97;3.65;;;;;;;36.24;21.19;97919.28;5102400;28;43357;-78
2024/03/02 11:57:19;;;;;;;3.80;3.50;;;;;;;37.43;18.95;97932.78;5090639;28;41356;-81
2024/03/02 11:59:46;;;;;;;3.60;3.30;;;;;;;38.00;18.17;97923.56;5087091;28;41201;-86
2024/03/02 12:02:18;;;;;;;3.92;3.55;;;;;;;38.79;17.95;97911.69;5072912;28;40673;-89
2024/03/02 12:04:47;;;;;;;5.32;4.15;;;;;;;39.85;18.11;97903.41;5090853;28;43501;-86
2024/03/02 12:07:20;;;;;;;3.60;3.35;;;;;;;40.97;17.03;97898.09;5089367;28;41942;-85
2024/03/02 12:09:48;;;;;;;3.67;3.38;;;;;;;41.44;15.54;97910.50;5087937;28;39931;-85
2024/03/02 12:12:20;;;;;;;4.30;3.90;;;;;;;41.52;15.28;97895.81;5088878;28;43328;-79
2024/03/02 12:14:52;;;;;;;3.10;2.90;;;;;;;42.11;15.07;97896.38;5087377;28;43763;-85
2024/03/02 12:17:19;;;;;;;2.88;2.67;;;;;;;42.46;14.71;97871.41;5072234;28;43150;-81
2024/03/02 12:19:47;;;;;;;2.85;2.65;;;;;;;42.41;15.00;97885.50;5072692;28;40204;-87
2024/03/02 12:22:15;;;;;;;2.78;2.58;;;;;;;41.73;16.26;97862.72;5072399;28;41113;-85
2024/03/02 12:24:46;;;;;;;2.67;2.47;;;;;;;41.29;15.35;97876.75;5089378;28;43806;-80
2024/03/02 12:27:15;;;;;;;2.88;2.67;;;;;;;40.99;16.13;97858.91;5088698;28;42235;-86
2024/03/02 12:29:44;;;;;;;2.90;2.70;;;;;;;41.24;16.74;97852.69;5090694;28;39693;-91
2024/03/02 12:32:12;;;;;;;3.47;3.17;;;;;;;41.86;15.05;97858.19;5089199;28;42068;-83
2024/03/02 12:34:39;;;;;;;3.25;2.88;;;;;;;42.08;14.98;97860.84;5075420;28;41903;-83
2024/03/02 12:37:07;;;;;;;2.97;2.78;;;;;;;42.27;15.05;97847.47;5092255;28;41775;-84
2024/03/02 12:39:34;;;;;;;3.78;3.10;;;;;;;42.38;15.05;97833.25;5093252;28;40949;-86
2024/03/02 12:42:04;;;;;;;3.55;3.25;;;;;;;42.55;14.26;97847.97;5076436;28;40584;-81
2024/03/02 12:44:31;;;;;;;3.35;3.10;;;;;;;42.53;14.65;97843.91;5093256;28;43045;-84
2024/03/02 12:47:00;;;;;;;2.83;2.63;;;;;;;42.42;14.71;97842.56;5094078;28;43470;-82
2024/03/02 12:49:28;;;;;;;2.83;2.63;;;;;;;42.24;14.54;97831.41;5093095;28;39993;-85
2024/03/02 12:51:57;;;;;;;3.58;3.28;;;;;;;42.04;14.62;97825.69;5092815;28;42393;-81
2024/03/02 12:54:26;;;;;;;3.00;2.70;;;;;;;42.09;14.75;97831.91;5093392;28;42704;-82
2024/03/02 12:56:54;;;;;;;3.28;3.08;;;;;;;42.13;14.82;97832.88;5092749;28;42442;-83
2024/03/02 12:59:26;;;;;;;2.60;2.40;;;;;;;41.79;14.91;97818.91;5093114;28;39316;-84
2024/03/02 13:01:54;;;;;;;2.70;2.50;;;;;;;41.54;14.94;97818.53;5075726;28;42122;-86
2024/03/02 13:04:28;;;;;;;2.70;2.50;;;;;;;40.36;15.23;97809.94;5092950;28;43391;-86
2024/03/02 13:06:57;;;;;;;2.78;2.40;;;;;;;38.53;16.74;97788.69;5092757;28;42279;-83
2024/03/02 13:09:25;;;;;;;2.88;2.50;;;;;;;38.00;16.89;97786.16;5092687;28;38751;-80
2024/03/02 13:11:53;;;;;;;3.60;3.30;;;;;;;37.99;16.83;97773.44;5092351;28;42411;-83
2024/03/02 13:14:24;;;;;;;4.10;3.17;;;;;;;38.28;17.42;97767.78;5093947;28;43032;-85
2024/03/02 13:16:52;;;;;;;2.47;2.28;;;;;;;38.41;17.33;97749.56;5075880;28;41044;-80
2024/03/02 13:19:20;;;;;;;2.85;2.50;;;;;;;38.16;17.17;97741.69;5092764;28;40369;-81
2024/03/02 13:21:50;;;;;;;3.15;2.95;;;;;;;36.74;18.03;97760.88;5075712;28;40904;-81
2024/03/02 13:24:18;;;;;;;3.33;3.03;;;;;;;35.92;18.70;97754.34;5092732;28;42108;-81
2024/03/02 13:26:45;;;;;;;3.17;2.88;;;;;;;36.45;18.77;97741.56;5091984;28;40929;-81
2024/03/02 13:29:13;;;;;;;4.60;3.47;;;;;;;37.07;18.16;97745.34;5093507;28;40292;-83
2024/03/02 13:31:40;;;;;;;3.72;3.35;;;;;;;37.55;17.73;97740.63;5092203;28;44167;-85
2024/03/02 13:34:08;;;;;;;3.08;2.88;;;;;;;37.76;17.76;97743.94;5091942;28;42304;-87
2024/03/02 13:36:36;;;;;;;3.92;3.63;;;;;;;37.99;17.23;97743.03;5092301;28;42897;-84
2024/03/02 13:39:05;;;;;;;3.47;3.17;;;;;;;38.08;17.54;97744.00;5095089;28;38742;-81
2024/03/02 13:41:33;;;;;;;3.38;3.08;;;;;;;37.85;17.07;97720.03;5092668;28;42294;-86
2024/03/02 13:44:01;;;;;;;3.58;3.28;;;;;;;37.85;17.31;97744.06;5092087;28;44426;-82
2024/03/02 13:46:29;;;;;;;3.88;3.45;;;;;;;37.56;17.86;97742.25;5074966;28;41537;-80
2024/03/02 13:48:57;;;;;;;4.03;3.63;;;;;;;36.94;17.82;97737.78;5092285;28;41052;-83
2024/03/02 13:51:27;;;;;;;3.63;3.33;;;;;;;36.93;18.43;97725.09;5091818;28;42334;-86
2024/03/02 13:53:54;;;;;;;3.47;3.20;;;;;;;36.97;17.89;97720.59;5091993;28;43135;-83
2024/03/02 13:56:23;;;;;;;3.20;3.00;;;;;;;36.33;18.53;97719.88;5075065;28;42535;-86
2024/03/02 13:58:51;;;;;;;3.00;2.78;;;;;;;36.20;19.07;97684.69;5074904;28;39200;-80
2024/03/02 14:01:18;;;;;;;3.50;3.20;;;;;;;36.58;18.55;97706.97;5091839;28;43643;-82
2024/03/02 14:03:47;;;;;;;3.00;2.80;;;;;;;36.65;18.01;97702.72;5074865;28;42865;-86
2024/03/02 14:06:14;;;;;;;3.47;3.20;;;;;;;36.65;18.93;97711.00;5091867;28;43470;-81
2024/03/02 14:08:44;;;;;;;2.53;2.33;;;;;;;36.38;18.46;97694.19;5093049;28;40464;-80
2024/03/02 14:11:14;;;;;;;2.65;2.45;;;;;;;36.32;18.17;97709.13;5091611;28;42229;-83
2024/03/02 14:13:49;;;;;;;2.80;2.60;;;;;;;36.14;18.38;97707.03;5092510;28;43030;-83
2024/03/02 14:16:17;;;;;;;2.95;2.70;;;;;;;35.96;18.94;97712.16;5090988;28;42445;-83
2024/03/02 14:18:44;;;;;;;2.65;2.45;;;;;;;35.81;18.76;97708.69;5093032;28;40340;-80
2024/03/02 14:21:12;;;;;;;2.60;2.40;;;;;;;35.21;18.31;97705.13;5091651;28;42344;-79
2024/03/02 14:23:40;;;;;;;2.10;1.90;;;;;;;34.43;18.89;97713.88;5092968;28;43499;-78
2024/03/02 14:26:08;;;;;;;2.10;1.90;;;;;;;33.30;19.67;97702.19;5091377;28;42352;-83
2024/03/02 14:28:35;;;;;;;2.05;1.85;;;;;;;33.03;19.97;97686.69;5091499;28;40184;-82
2024/03/02 14:31:04;;;;;;;1.75;1.40;;;;;;;32.87;20.02;97687.72;5091171;28;40766;-81
2024/03/02 14:33:32;;;;;;;1.50;1.40;;;;;;;32.54;20.21;97693.53;5091633;28;43829;-77
2024/03/02 14:35:59;;;;;;;2.87;2.03;;;;;;;31.92;20.90;97691.41;5091452;28;41186;-85
2024/03/02 14:38:27;;;;;;;2.50;1.93;;;;;;;31.35;21.69;97686.47;5077699;28;40972;-79
2024/03/02 14:40:54;;;;;;;1.43;1.33;;;;;;;30.48;21.53;97684.50;5092392;28;42066;-83
2024/03/02 14:43:22;;;;;;;1.03;0.90;;;;;;;29.67;22.07;97676.91;5091250;28;44309;-82
2024/03/02 14:45:50;;;;;;;1.87;1.40;;;;;;;29.05;22.59;97644.13;5090460;28;42203;-82
2024/03/02 14:48:19;;;;;;;2.63;2.03;;;;;;;28.68;23.97;97668.13;5091456;28;39212;-82
2024/03/02 14:50:47;;;;;;;2.93;2.50;;;;;;;27.74;25.25;97654.50;5090824;28;42626;-82
2024/03/02 14:53:14;;;;;;;4.67;1.80;;;;;;;27.00;26.04;97657.69;5092352;28;43831;-80
2024/03/02 14:55:42;;;;;;;2.77;2.10;;;;;;;26.32;27.41;97645.13;5073364;28;41506;-79
2024/03/02 14:58:09;;;;;;;2.50;2.00;;;;;;;25.61;28.08;97644.69;5091068;28;40579;-80
2024/03/02 15:00:37;;;;;;;2.30;2.10;;;;;;;24.97;28.88;97634.91;5090991;28;41782;-84